sensor_id;sensor_type;location;lat;lon;timestamp;pressure;altitude;pressure_sealevel;temperature;humidity
17311;BME280;8773;43.300;0.394;2022-07-10T00:00:08;100013.00;;;21.11;100.00
17311;BME280;8773;43.300;0.394;2022-07-10T00:02:37;100019.25;;;21.13;100.00
17311;BME280;8773;43.300;0.394;2022-07-10T00:05:07;100020.97;;;21.11;100.00
17311;BME280;8773;43.300;0.394;2022-07-10T00:07:39;100016.56;;;21.05;100.00
17311;BME280;8773;43.300;0.394;2022-07-10T00:10:08;100013.03;;;21.05;100.00
17311;BME280;8773;43.300;0.394;2022-07-10T00:12:37;100014.75;;;20.94;100.00
17311;BME280;8773;43.300;0.394;2022-07-10T00:15:06;100009.50;;;21.04;100.00
17311;BME280;8773;43.300;0.394;2022-07-10T00:17:34;100010.41;;;21.16;100.00
17311;BME280;8773;43.300;0.394;2022-07-10T00:20:06;100013.97;;;21.15;100.00
17311;BME280;8773;43.300;0.394;2022-07-10T00:22:35;100006.00;;;21.16;100.00
17311;BME280;8773;43.300;0.394;2022-07-10T00:25:05;100008.59;;;21.08;100.00
17311;BME280;8773;43.300;0.394;2022-07-10T00:27:35;100006.78;;;20.87;100.00
17311;BME280;8773;43.300;0.394;2022-07-10T00:30:04;99995.22;;;20.64;100.00
17311;BME280;8773;43.300;0.394;2022-07-10T00:32:32;99996.00;;;20.43;100.00
17311;BME280;8773;43.300;0.394;2022-07-10T00:35:00;99994.09;;;20.23;100.00
17311;BME280;8773;43.300;0.394;2022-07-10T00:37:29;99988.06;;;20.41;100.00
17311;BME280;8773;43.300;0.394;2022-07-10T00:39:57;99989.81;;;20.42;100.00
17311;BME280;8773;43.300;0.394;2022-07-10T00:42:26;99990.63;;;20.32;100.00
17311;BME280;8773;43.300;0.394;2022-07-10T00:44:56;99980.91;;;20.33;100.00
17311;BME280;8773;43.300;0.394;2022-07-10T00:47:24;99986.94;;;20.06;100.00
17311;BME280;8773;43.300;0.394;2022-07-10T00:49:52;99981.69;;;20.10;100.00
17311;BME280;8773;43.300;0.394;2022-07-10T00:52:21;99979.97;;;20.20;100.00
17311;BME280;8773;43.300;0.394;2022-07-10T00:54:49;99980.94;;;20.34;100.00
17311;BME280;8773;43.300;0.394;2022-07-10T00:57:18;99978.28;;;20.34;100.00
17311;BME280;8773;43.300;0.394;2022-07-10T00:59:48;99981.88;;;20.46;100.00
17311;BME280;8773;43.300;0.394;2022-07-10T01:02:18;99977.38;;;20.32;100.00
17311;BME280;8773;43.300;0.394;2022-07-10T01:04:46;99976.28;;;19.95;100.00
17311;BME280;8773;43.300;0.394;2022-07-10T01:07:14;99969.13;;;19.78;100.00
17311;BME280;8773;43.300;0.394;2022-07-10T01:09:43;99964.72;;;19.79;100.00
17311;BME280;8773;43.300;0.394;2022-07-10T01:12:12;99974.31;;;19.62;100.00
17311;BME280;8773;43.300;0.394;2022-07-10T01:14:40;99966.97;;;19.33;100.00
17311;BME280;8773;43.300;0.394;2022-07-10T01:17:10;99964.41;;;19.42;100.00
17311;BME280;8773;43.300;0.394;2022-07-10T01:19:40;99951.28;;;19.54;100.00
17311;BME280;8773;43.300;0.394;2022-07-10T01:22:09;99957.38;;;19.49;100.00
17311;BME280;8773;43.300;0.394;2022-07-10T01:24:37;99958.25;;;19.46;100.00
17311;BME280;8773;43.300;0.394;2022-07-10T01:27:06;99952.16;;;19.52;100.00
17311;BME280;8773;43.300;0.394;2022-07-10T01:29:34;99945.22;;;19.65;100.00
17311;BME280;8773;43.300;0.394;2022-07-10T01:32:04;99948.72;;;19.62;100.00
17311;BME280;8773;43.300;0.394;2022-07-10T01:34:32;99952.22;;;19.61;100.00
17311;BME280;8773;43.300;0.394;2022-07-10T01:37:00;99946.97;;;19.64;100.00
17311;BME280;8773;43.300;0.394;2022-07-10T01:39:30;99951.47;;;19.80;100.00
17311;BME280;8773;43.300;0.394;2022-07-10T01:42:01;99947.59;;;19.38;100.00
17311;BME280;8773;43.300;0.394;2022-07-10T01:44:29;99935.41;;;19.54;100.00
17311;BME280;8773;43.300;0.394;2022-07-10T01:46:57;99935.41;;;19.54;100.00
17311;BME280;8773;43.300;0.394;2022-07-10T01:49:25;99938.75;;;19.32;100.00
17311;BME280;8773;43.300;0.394;2022-07-10T01:51:53;99933.59;;;19.47;100.00
17311;BME280;8773;43.300;0.394;2022-07-10T01:54:21;99930.94;;;19.44;100.00
17311;BME280;8773;43.300;0.394;2022-07-10T01:56:51;99925.72;;;19.58;100.00
17311;BME280;8773;43.300;0.394;2022-07-10T01:59:19;99931.78;;;19.42;100.00
17311;BME280;8773;43.300;0.394;2022-07-10T02:01:47;99930.06;;;19.47;100.00
17311;BME280;8773;43.300;0.394;2022-07-10T02:04:15;99929.16;;;19.45;100.00
17311;BME280;8773;43.300;0.394;2022-07-10T02:07:03;99930.91;;;19.43;100.00
17311;BME280;8773;43.300;0.394;2022-07-10T02:09:31;99926.47;;;19.40;100.00
17311;BME280;8773;43.300;0.394;2022-07-10T02:12:01;99922.84;;;19.27;100.00
17311;BME280;8773;43.300;0.394;2022-07-10T02:14:29;99924.50;;;19.14;100.00
17311;BME280;8773;43.300;0.394;2022-07-10T02:16:57;99921.78;;;19.07;100.00
17311;BME280;8773;43.300;0.394;2022-07-10T02:19:25;99916.53;;;19.11;100.00
17311;BME280;8773;43.300;0.394;2022-07-10T02:21:53;99915.59;;;19.02;100.00
17311;BME280;8773;43.300;0.394;2022-07-10T02:24:22;99911.84;;;18.80;100.00
17311;BME280;8773;43.300;0.394;2022-07-10T02:26:50;99905.66;;;18.81;100.00
17311;BME280;8773;43.300;0.394;2022-07-10T02:29:20;99902.31;;;18.99;100.00
17311;BME280;8773;43.300;0.394;2022-07-10T02:31:49;99903.16;;;18.96;100.00
17311;BME280;8773;43.300;0.394;2022-07-10T02:34:18;99910.34;;;19.08;100.00
17311;BME280;8773;43.300;0.394;2022-07-10T02:36:46;99912.09;;;19.07;100.00
17311;BME280;8773;43.300;0.394;2022-07-10T02:39:14;99916.84;;;18.58;100.00
17311;BME280;8773;43.300;0.394;2022-07-10T02:41:42;99908.81;;;18.47;100.00
17311;BME280;8773;43.300;0.394;2022-07-10T02:44:10;99900.25;;;18.71;100.00
17311;BME280;8773;43.300;0.394;2022-07-10T02:46:39;99900.28;;;18.73;100.00
17311;BME280;8773;43.300;0.394;2022-07-10T02:49:07;99906.63;;;18.89;100.00
17311;BME280;8773;43.300;0.394;2022-07-10T02:51:35;99907.53;;;18.89;100.00
17311;BME280;8773;43.300;0.394;2022-07-10T02:54:03;99910.34;;;19.08;100.00
17311;BME280;8773;43.300;0.394;2022-07-10T02:56:31;99905.94;;;19.07;100.00
17311;BME280;8773;43.300;0.394;2022-07-10T02:58:59;99904.00;;;18.90;100.00
17311;BME280;8773;43.300;0.394;2022-07-10T03:01:27;99910.81;;;18.70;100.00
17311;BME280;8773;43.300;0.394;2022-07-10T03:03:57;99901.09;;;18.67;100.00
17311;BME280;8773;43.300;0.394;2022-07-10T03:06:25;99902.75;;;18.58;100.00
17311;BME280;8773;43.300;0.394;2022-07-10T03:08:54;99905.47;;;18.64;100.00
17311;BME280;8773;43.300;0.394;2022-07-10T03:11:22;99898.53;;;18.77;100.00
17311;BME280;8773;43.300;0.394;2022-07-10T03:13:50;99899.38;;;18.71;100.00
17311;BME280;8773;43.300;0.394;2022-07-10T03:16:18;99900.38;;;18.79;100.00
17311;BME280;8773;43.300;0.394;2022-07-10T03:18:46;99894.16;;;18.77;100.00
17311;BME280;8773;43.300;0.394;2022-07-10T03:21:16;99892.47;;;18.81;100.00
17311;BME280;8773;43.300;0.394;2022-07-10T03:23:44;99894.19;;;18.79;100.00
17311;BME280;8773;43.300;0.394;2022-07-10T03:26:12;99889.59;;;18.62;100.00
17311;BME280;8773;43.300;0.394;2022-07-10T03:28:40;99899.13;;;18.48;100.00
17311;BME280;8773;43.300;0.394;2022-07-10T03:31:08;99889.44;;;18.47;100.00
17311;BME280;8773;43.300;0.394;2022-07-10T03:33:37;99893.03;;;18.52;100.00
17311;BME280;8773;43.300;0.394;2022-07-10T03:36:06;99887.72;;;18.50;100.00
17311;BME280;8773;43.300;0.394;2022-07-10T03:38:35;99886.66;;;18.35;100.00
17311;BME280;8773;43.300;0.394;2022-07-10T03:41:07;99882.22;;;18.34;100.00
17311;BME280;8773;43.300;0.394;2022-07-10T03:43:35;99887.56;;;18.38;100.00
17311;BME280;8773;43.300;0.394;2022-07-10T03:46:03;99892.06;;;18.45;100.00
17311;BME280;8773;43.300;0.394;2022-07-10T03:48:33;99883.97;;;18.32;100.00
17311;BME280;8773;43.300;0.394;2022-07-10T03:51:02;99881.19;;;18.18;100.00
17311;BME280;8773;43.300;0.394;2022-07-10T03:53:30;99873.59;;;17.78;100.00
17311;BME280;8773;43.300;0.394;2022-07-10T03:56:00;99870.22;;;17.88;100.00
17311;BME280;8773;43.300;0.394;2022-07-10T03:58:28;99861.78;;;17.52;100.00
17311;BME280;8773;43.300;0.394;2022-07-10T04:00:55;99865.69;;;17.19;100.00
17311;BME280;8773;43.300;0.394;2022-07-10T04:03:23;99850.09;;;17.34;100.00
17311;BME280;8773;43.300;0.394;2022-07-10T04:05:51;99857.63;;;17.68;100.00
17311;BME280;8773;43.300;0.394;2022-07-10T04:08:19;99861.44;;;17.90;100.00
17311;BME280;8773;43.300;0.394;2022-07-10T04:10:47;99856.25;;;17.96;100.00
17311;BME280;8773;43.300;0.394;2022-07-10T04:13:17;99859.09;;;18.10;100.00
17311;BME280;8773;43.300;0.394;2022-07-10T04:15:45;99858.09;;;18.01;100.00
17311;BME280;8773;43.300;0.394;2022-07-10T04:18:13;99861.75;;;18.14;100.00
17311;BME280;8773;43.300;0.394;2022-07-10T04:20:41;99863.56;;;18.18;100.00
17311;BME280;8773;43.300;0.394;2022-07-10T04:23:10;99862.72;;;18.21;100.00
17311;BME280;8773;43.300;0.394;2022-07-10T04:25:38;99857.16;;;17.95;100.00
17311;BME280;8773;43.300;0.394;2022-07-10T04:28:06;99862.47;;;18.01;100.00
17311;BME280;8773;43.300;0.394;2022-07-10T04:30:54;99855.84;;;17.65;100.00
17311;BME280;8773;43.300;0.394;2022-07-10T04:33:22;99847.91;;;17.65;100.00
17311;BME280;8773;43.300;0.394;2022-07-10T04:35:50;99851.31;;;17.55;100.00
17311;BME280;8773;43.300;0.394;2022-07-10T04:38:19;99848.09;;;17.77;100.00
17311;BME280;8773;43.300;0.394;2022-07-10T04:40:47;99851.94;;;17.99;100.00
17311;BME280;8773;43.300;0.394;2022-07-10T04:43:15;99845.44;;;17.77;100.00
17311;BME280;8773;43.300;0.394;2022-07-10T04:45:43;99848.28;;;17.93;100.00
17311;BME280;8773;43.300;0.394;2022-07-10T04:48:13;99846.66;;;18.01;100.00
17311;BME280;8773;43.300;0.394;2022-07-10T04:50:46;99844.97;;;18.07;100.00
17311;BME280;8773;43.300;0.394;2022-07-10T04:53:33;99850.34;;;18.15;100.00
17311;BME280;8773;43.300;0.394;2022-07-10T04:56:19;99846.97;;;18.28;100.00
17311;BME280;8773;43.300;0.394;2022-07-10T04:59:06;99842.47;;;18.21;100.00
17311;BME280;8773;43.300;0.394;2022-07-10T05:01:59;99843.25;;;18.10;100.00
17311;BME280;8773;43.300;0.394;2022-07-10T05:04:47;99833.63;;;18.16;100.00
17311;BME280;8773;43.300;0.394;2022-07-10T05:07:35;99839.59;;;17.97;100.00
17311;BME280;8773;43.300;0.394;2022-07-10T05:10:37;99838.91;;;18.15;100.00
17311;BME280;8773;43.300;0.394;2022-07-10T05:13:25;99832.63;;;18.06;100.00
17311;BME280;8773;43.300;0.394;2022-07-10T05:16:11;99835.97;;;17.93;100.00
17311;BME280;8773;43.300;0.394;2022-07-10T05:19:04;99835.03;;;17.88;100.00
17311;BME280;8773;43.300;0.394;2022-07-10T05:21:52;99835.34;;;18.11;100.00
17311;BME280;8773;43.300;0.394;2022-07-10T05:24:38;99838.66;;;17.96;100.00
17311;BME280;8773;43.300;0.394;2022-07-10T05:27:25;99839.31;;;17.80;100.00
17311;BME280;8773;43.300;0.394;2022-07-10T05:30:12;99840.53;;;18.03;100.00
17311;BME280;8773;43.300;0.394;2022-07-10T05:32:59;99841.72;;;18.32;100.00
17311;BME280;8773;43.300;0.394;2022-07-10T05:35:46;99848.03;;;18.46;100.00
17311;BME280;8773;43.300;0.394;2022-07-10T05:38:45;99852.88;;;18.87;100.00
17311;BME280;8773;43.300;0.394;2022-07-10T05:41:39;99846.34;;;19.58;100.00
17311;BME280;8773;43.300;0.394;2022-07-10T05:44:25;99861.81;;;20.76;100.00
17311;BME280;8773;43.300;0.394;2022-07-10T05:47:12;99864.41;;;21.88;100.00
17311;BME280;8773;43.300;0.394;2022-07-10T05:49:58;99863.91;;;22.89;100.00
17311;BME280;8773;43.300;0.394;2022-07-10T05:52:45;99860.25;;;23.95;100.00
17311;BME280;8773;43.300;0.394;2022-07-10T05:55:33;99869.91;;;24.72;100.00
17311;BME280;8773;43.300;0.394;2022-07-10T05:58:20;99864.50;;;25.32;100.00
17311;BME280;8773;43.300;0.394;2022-07-10T06:01:07;99869.81;;;25.82;100.00
17311;BME280;8773;43.300;0.394;2022-07-10T06:03:53;99873.16;;;26.35;100.00
17311;BME280;8773;43.300;0.394;2022-07-10T06:06:40;99873.03;;;26.83;100.00
17311;BME280;8773;43.300;0.394;2022-07-10T06:09:41;99872.13;;;27.20;100.00
17311;BME280;8773;43.300;0.394;2022-07-10T06:12:29;99876.34;;;27.65;100.00
17311;BME280;8773;43.300;0.394;2022-07-10T06:14:57;99873.91;;;26.02;100.00
17311;BME280;8773;43.300;0.394;2022-07-10T06:17:26;99879.94;;;26.92;100.00
17311;BME280;8773;43.300;0.394;2022-07-10T06:19:54;99877.81;;;27.05;100.00
17311;BME280;8773;43.300;0.394;2022-07-10T06:22:22;99874.34;;;28.04;100.00
17311;BME280;8773;43.300;0.394;2022-07-10T06:25:01;99877.72;;;28.11;100.00
17311;BME280;8773;43.300;0.394;2022-07-10T06:27:31;99878.91;;;28.62;100.00
17311;BME280;8773;43.300;0.394;2022-07-10T06:29:59;99879.63;;;28.67;100.00
17311;BME280;8773;43.300;0.394;2022-07-10T06:32:27;99876.34;;;28.87;100.00
17311;BME280;8773;43.300;0.394;2022-07-10T06:34:55;99877.16;;;28.61;100.00
17311;BME280;8773;43.300;0.394;2022-07-10T06:37:24;99880.44;;;29.52;100.00
17311;BME280;8773;43.300;0.394;2022-07-10T06:39:52;99872.50;;;29.74;100.00
17311;BME280;8773;43.300;0.394;2022-07-10T06:42:20;99892.31;;;29.96;100.00
17311;BME280;8773;43.300;0.394;2022-07-10T06:44:49;99881.56;;;29.96;100.00
17311;BME280;8773;43.300;0.394;2022-07-10T06:47:18;99884.53;;;30.83;100.00
17311;BME280;8773;43.300;0.394;2022-07-10T06:50:06;99889.34;;;30.04;94.19
17311;BME280;8773;43.300;0.394;2022-07-10T06:52:35;99876.13;;;28.05;100.00
17311;BME280;8773;43.300;0.394;2022-07-10T06:55:04;99883.38;;;30.19;100.00
17311;BME280;8773;43.300;0.394;2022-07-10T06:57:33;99888.38;;;30.54;98.70
17311;BME280;8773;43.300;0.394;2022-07-10T07:00:04;99884.06;;;31.38;93.84
17311;BME280;8773;43.300;0.394;2022-07-10T07:02:32;99891.75;;;31.67;90.40
17311;BME280;8773;43.300;0.394;2022-07-10T07:05:01;99887.34;;;32.26;85.43
17311;BME280;8773;43.300;0.394;2022-07-10T07:07:29;99897.94;;;32.31;86.32
17311;BME280;8773;43.300;0.394;2022-07-10T07:09:57;99893.41;;;32.12;85.63
17311;BME280;8773;43.300;0.394;2022-07-10T07:12:25;99901.25;;;32.17;84.23
17311;BME280;8773;43.300;0.394;2022-07-10T07:14:54;99902.84;;;30.97;90.69
17311;BME280;8773;43.300;0.394;2022-07-10T07:17:23;99894.72;;;31.82;91.67
17311;BME280;8773;43.300;0.394;2022-07-10T07:19:55;99900.78;;;31.03;93.97
17311;BME280;8773;43.300;0.394;2022-07-10T07:22:41;99904.38;;;31.67;89.80
17311;BME280;8773;43.300;0.394;2022-07-10T07:25:27;99905.28;;;32.27;84.84
17311;BME280;8773;43.300;0.394;2022-07-10T07:27:55;99901.88;;;32.80;82.30
17311;BME280;8773;43.300;0.394;2022-07-10T07:30:23;99890.38;;;32.58;83.11
17311;BME280;8773;43.300;0.394;2022-07-10T07:32:53;99894.28;;;33.08;81.28
17311;BME280;8773;43.300;0.394;2022-07-10T07:35:21;99884.16;;;32.56;83.89
17311;BME280;8773;43.300;0.394;2022-07-10T07:37:50;99891.03;;;32.05;85.60
17311;BME280;8773;43.300;0.394;2022-07-10T07:40:20;99893.81;;;32.22;86.21
17311;BME280;8773;43.300;0.394;2022-07-10T07:42:49;99888.31;;;32.05;85.75
17311;BME280;8773;43.300;0.394;2022-07-10T07:45:17;99886.22;;;32.51;85.64
17311;BME280;8773;43.300;0.394;2022-07-10T07:47:46;99889.53;;;32.18;84.86
17311;BME280;8773;43.300;0.394;2022-07-10T07:50:18;99881.19;;;32.98;82.28
17311;BME280;8773;43.300;0.394;2022-07-10T07:52:47;99879.78;;;32.53;84.57
17311;BME280;8773;43.300;0.394;2022-07-10T07:55:16;99882.09;;;32.99;81.66
17311;BME280;8773;43.300;0.394;2022-07-10T07:57:45;99878.38;;;33.36;77.57
17311;BME280;8773;43.300;0.394;2022-07-10T08:00:15;99872.94;;;32.45;80.92
17311;BME280;8773;43.300;0.394;2022-07-10T08:02:44;99867.22;;;32.33;85.67
17311;BME280;8773;43.300;0.394;2022-07-10T08:05:12;99880.75;;;33.08;82.73
17311;BME280;8773;43.300;0.394;2022-07-10T08:07:43;99877.22;;;32.69;81.87
17311;BME280;8773;43.300;0.394;2022-07-10T08:10:13;99889.50;;;32.94;81.78
17311;BME280;8773;43.300;0.394;2022-07-10T08:12:42;99878.31;;;33.20;79.72
17311;BME280;8773;43.300;0.394;2022-07-10T08:15:11;99877.84;;;32.74;79.42
17311;BME280;8773;43.300;0.394;2022-07-10T08:17:39;99877.47;;;30.33;97.53
17311;BME280;8773;43.300;0.394;2022-07-10T08:20:10;99873.25;;;30.73;97.74
17311;BME280;8773;43.300;0.394;2022-07-10T08:22:39;99870.00;;;31.92;91.04
17311;BME280;8773;43.300;0.394;2022-07-10T08:25:09;99863.81;;;31.70;90.39
17311;BME280;8773;43.300;0.394;2022-07-10T08:27:37;99865.44;;;31.53;94.46
17311;BME280;8773;43.300;0.394;2022-07-10T08:30:07;99866.59;;;31.87;90.94
17311;BME280;8773;43.300;0.394;2022-07-10T08:32:37;99864.16;;;29.30;100.00
17311;BME280;8773;43.300;0.394;2022-07-10T08:35:25;99863.63;;;30.20;100.00
17311;BME280;8773;43.300;0.394;2022-07-10T08:38:13;99858.41;;;29.92;100.00
17311;BME280;8773;43.300;0.394;2022-07-10T08:40:53;99859.28;;;29.93;100.00
17311;BME280;8773;43.300;0.394;2022-07-10T08:43:24;99849.28;;;28.37;100.00
17311;BME280;8773;43.300;0.394;2022-07-10T08:45:53;99848.19;;;27.48;100.00
17311;BME280;8773;43.300;0.394;2022-07-10T08:48:23;99848.84;;;27.89;100.00
17311;BME280;8773;43.300;0.394;2022-07-10T08:50:52;99844.19;;;27.96;100.00
17311;BME280;8773;43.300;0.394;2022-07-10T08:53:24;99843.44;;;27.58;100.00
17311;BME280;8773;43.300;0.394;2022-07-10T08:55:57;99838.66;;;27.37;100.00
17311;BME280;8773;43.300;0.394;2022-07-10T08:58:26;99846.69;;;27.71;100.00
17311;BME280;8773;43.300;0.394;2022-07-10T09:00:54;99844.06;;;27.69;100.00
17311;BME280;8773;43.300;0.394;2022-07-10T09:03:23;99840.19;;;27.80;100.00
17311;BME280;8773;43.300;0.394;2022-07-10T09:05:50;99837.28;;;27.55;100.00
17311;BME280;8773;43.300;0.394;2022-07-10T09:08:22;99838.75;;;27.68;100.00
17311;BME280;8773;43.300;0.394;2022-07-10T09:10:51;99832.06;;;27.83;100.00
17311;BME280;8773;43.300;0.394;2022-07-10T09:13:20;99831.66;;;27.97;100.00
17311;BME280;8773;43.300;0.394;2022-07-10T09:15:51;99827.25;;;27.94;100.00
17311;BME280;8773;43.300;0.394;2022-07-10T09:18:23;99829.56;;;27.44;100.00
17311;BME280;8773;43.300;0.394;2022-07-10T09:20:52;99826.16;;;27.01;100.00
17311;BME280;8773;43.300;0.394;2022-07-10T09:23:21;99821.50;;;27.44;100.00
17311;BME280;8773;43.300;0.394;2022-07-10T09:25:51;99817.00;;;27.46;100.00
17311;BME280;8773;43.300;0.394;2022-07-10T09:28:21;99829.22;;;27.23;100.00
17311;BME280;8773;43.300;0.394;2022-07-10T09:30:49;99824.63;;;27.60;100.00
17311;BME280;8773;43.300;0.394;2022-07-10T09:33:22;99818.81;;;26.35;100.00
17311;BME280;8773;43.300;0.394;2022-07-10T09:36:04;99827.88;;;26.28;100.00
17311;BME280;8773;43.300;0.394;2022-07-10T09:38:48;99822.84;;;26.56;100.00
17311;BME280;8773;43.300;0.394;2022-07-10T09:41:17;99817.75;;;27.18;100.00
17311;BME280;8773;43.300;0.394;2022-07-10T09:43:49;99810.13;;;27.36;100.00
17311;BME280;8773;43.300;0.394;2022-07-10T09:46:19;99822.50;;;27.73;100.00
17311;BME280;8773;43.300;0.394;2022-07-10T09:48:48;99815.69;;;27.61;100.00
17311;BME280;8773;43.300;0.394;2022-07-10T09:51:16;99810.66;;;27.81;100.00
17311;BME280;8773;43.300;0.394;2022-07-10T09:53:44;99815.59;;;28.26;100.00
17311;BME280;8773;43.300;0.394;2022-07-10T09:56:13;99808.84;;;28.13;100.00
17311;BME280;8773;43.300;0.394;2022-07-10T09:58:41;99810.06;;;27.71;100.00
17311;BME280;8773;43.300;0.394;2022-07-10T10:01:12;99801.69;;;27.82;100.00
17311;BME280;8773;43.300;0.394;2022-07-10T10:03:41;99800.41;;;27.63;100.00
17311;BME280;8773;43.300;0.394;2022-07-10T10:06:11;99802.88;;;27.39;100.00
17311;BME280;8773;43.300;0.394;2022-07-10T10:08:51;99804.06;;;27.60;100.00
17311;BME280;8773;43.300;0.394;2022-07-10T10:11:26;99801.59;;;27.21;100.00
17311;BME280;8773;43.300;0.394;2022-07-10T10:13:55;99800.66;;;27.55;100.00
17311;BME280;8773;43.300;0.394;2022-07-10T10:16:25;99800.06;;;27.11;100.00
17311;BME280;8773;43.300;0.394;2022-07-10T10:19:02;99802.88;;;27.39;100.00
17311;BME280;8773;43.300;0.394;2022-07-10T10:21:49;99802.00;;;27.39;100.00
17311;BME280;8773;43.300;0.394;2022-07-10T10:24:17;99800.09;;;27.75;100.00
17311;BME280;8773;43.300;0.394;2022-07-10T10:26:46;99801.75;;;27.81;100.00
17311;BME280;8773;43.300;0.394;2022-07-10T10:29:14;99798.03;;;28.14;100.00
17311;BME280;8773;43.300;0.394;2022-07-10T10:31:44;99800.56;;;28.21;100.00
17311;BME280;8773;43.300;0.394;2022-07-10T10:34:12;99797.34;;;28.38;100.00
17311;BME280;8773;43.300;0.394;2022-07-10T10:36:45;99799.66;;;28.50;100.00
17311;BME280;8773;43.300;0.394;2022-07-10T10:39:14;99800.31;;;27.69;100.00
17311;BME280;8773;43.300;0.394;2022-07-10T10:41:48;99794.63;;;27.80;100.00
17311;BME280;8773;43.300;0.394;2022-07-10T10:44:25;99797.56;;;27.38;100.00
17311;BME280;8773;43.300;0.394;2022-07-10T10:47:02;99782.63;;;27.93;100.00
17311;BME280;8773;43.300;0.394;2022-07-10T10:49:52;99788.44;;;28.07;100.00
17311;BME280;8773;43.300;0.394;2022-07-10T10:52:20;99780.38;;;27.78;100.00
17311;BME280;8773;43.300;0.394;2022-07-10T10:55:08;99784.75;;;28.41;100.00
17311;BME280;8773;43.300;0.394;2022-07-10T10:57:39;99778.31;;;28.73;100.00
17311;BME280;8773;43.300;0.394;2022-07-10T11:00:13;99775.25;;;28.57;100.00
17311;BME280;8773;43.300;0.394;2022-07-10T11:02:44;99774.44;;;28.27;100.00
17311;BME280;8773;43.300;0.394;2022-07-10T11:05:40;99776.00;;;28.05;100.00
17311;BME280;8773;43.300;0.394;2022-07-10T11:08:12;99758.19;;;28.32;100.00
17311;BME280;8773;43.300;0.394;2022-07-10T11:10:42;99753.78;;;28.31;100.00
17311;BME280;8773;43.300;0.394;2022-07-10T11:13:15;99750.63;;;28.45;100.00
17311;BME280;8773;43.300;0.394;2022-07-10T11:15:44;99748.56;;;27.95;100.00
17311;BME280;8773;43.300;0.394;2022-07-10T11:18:15;99744.09;;;27.00;100.00
17311;BME280;8773;43.300;0.394;2022-07-10T11:20:45;99738.44;;;27.13;100.00
17311;BME280;8773;43.300;0.394;2022-07-10T11:23:35;99749.81;;;27.54;100.00
17311;BME280;8773;43.300;0.394;2022-07-10T11:26:13;99739.94;;;27.54;100.00
17311;BME280;8773;43.300;0.394;2022-07-10T11:28:51;99738.91;;;27.91;100.00
17311;BME280;8773;43.300;0.394;2022-07-10T11:31:21;99734.56;;;28.70;100.00
17311;BME280;8773;43.300;0.394;2022-07-10T11:33:52;99729.28;;;28.95;100.00
17311;BME280;8773;43.300;0.394;2022-07-10T11:36:21;99730.53;;;28.00;100.00
17311;BME280;8773;43.300;0.394;2022-07-10T11:38:56;99728.31;;;27.86;100.00
17311;BME280;8773;43.300;0.394;2022-07-10T11:41:25;99725.09;;;27.42;100.00
17311;BME280;8773;43.300;0.394;2022-07-10T11:43:55;99721.34;;;27.81;100.00
17311;BME280;8773;43.300;0.394;2022-07-10T11:46:32;99715.28;;;28.32;100.00
17311;BME280;8773;43.300;0.394;2022-07-10T11:49:21;99711.44;;;28.41;100.00
17311;BME280;8773;43.300;0.394;2022-07-10T11:51:49;99710.38;;;28.45;100.00
17311;BME280;8773;43.300;0.394;2022-07-10T11:54:19;99704.34;;;29.16;100.00
17311;BME280;8773;43.300;0.394;2022-07-10T11:56:53;99706.31;;;29.60;100.00
17311;BME280;8773;43.300;0.394;2022-07-10T11:59:24;99711.78;;;29.58;100.00
17311;BME280;8773;43.300;0.394;2022-07-10T12:01:56;99705.31;;;29.14;100.00
17311;BME280;8773;43.300;0.394;2022-07-10T12:04:44;99700.13;;;28.84;100.00
17311;BME280;8773;43.300;0.394;2022-07-10T12:07:20;99698.41;;;29.07;100.00
17311;BME280;8773;43.300;0.394;2022-07-10T12:10:08;99697.53;;;28.28;100.00
17311;BME280;8773;43.300;0.394;2022-07-10T12:13:03;99692.47;;;28.72;100.00
17311;BME280;8773;43.300;0.394;2022-07-10T12:15:51;99689.69;;;29.25;100.00
17311;BME280;8773;43.300;0.394;2022-07-10T12:18:28;99694.41;;;29.67;100.00
17311;BME280;8773;43.300;0.394;2022-07-10T12:21:18;99687.47;;;29.13;100.00
17311;BME280;8773;43.300;0.394;2022-07-10T12:24:07;99686.50;;;29.62;100.00
17311;BME280;8773;43.300;0.394;2022-07-10T12:26:56;99677.19;;;29.95;100.00
17311;BME280;8773;43.300;0.394;2022-07-10T12:30:00;99684.72;;;29.85;100.00
17311;BME280;8773;43.300;0.394;2022-07-10T12:32:48;99678.16;;;29.47;100.00
17311;BME280;8773;43.300;0.394;2022-07-10T12:35:56;99680.16;;;29.87;100.00
17311;BME280;8773;43.300;0.394;2022-07-10T12:38:53;99690.53;;;29.74;99.28
17311;BME280;8773;43.300;0.394;2022-07-10T12:41:59;99676.25;;;28.75;100.00
17311;BME280;8773;43.300;0.394;2022-07-10T12:44:48;99677.28;;;29.70;100.00
17311;BME280;8773;43.300;0.394;2022-07-10T12:47:43;99686.34;;;29.91;98.49
17311;BME280;8773;43.300;0.394;2022-07-10T12:50:26;99683.75;;;29.88;92.47
17311;BME280;8773;43.300;0.394;2022-07-10T12:53:23;99665.81;;;29.88;100.00
17311;BME280;8773;43.300;0.394;2022-07-10T12:56:26;99676.56;;;29.88;90.19
17311;BME280;8773;43.300;0.394;2022-07-10T12:59:13;99671.97;;;29.68;90.76
17311;BME280;8773;43.300;0.394;2022-07-10T13:01:43;99661.34;;;29.89;95.41
17311;BME280;8773;43.300;0.394;2022-07-10T13:04:12;99661.06;;;29.95;93.63
17311;BME280;8773;43.300;0.394;2022-07-10T13:06:41;99662.78;;;29.74;92.66
17311;BME280;8773;43.300;0.394;2022-07-10T13:09:21;99654.63;;;29.99;93.06
17311;BME280;8773;43.300;0.394;2022-07-10T13:11:52;99653.69;;;30.00;90.11
17311;BME280;8773;43.300;0.394;2022-07-10T13:14:20;99655.38;;;30.02;91.67
17311;BME280;8773;43.300;0.394;2022-07-10T13:16:49;99647.41;;;30.65;93.55
17311;BME280;8773;43.300;0.394;2022-07-10T13:19:17;99651.25;;;30.16;83.85
17311;BME280;8773;43.300;0.394;2022-07-10T13:21:46;99651.78;;;29.80;86.21
17311;BME280;8773;43.300;0.394;2022-07-10T13:24:14;99645.78;;;30.17;90.85
17311;BME280;8773;43.300;0.394;2022-07-10T13:26:42;99639.38;;;29.99;84.24
17311;BME280;8773;43.300;0.394;2022-07-10T13:29:12;99647.97;;;29.63;82.08
17311;BME280;8773;43.300;0.394;2022-07-10T13:31:40;99628.78;;;29.73;79.97
17311;BME280;8773;43.300;0.394;2022-07-10T13:34:08;99627.31;;;29.64;79.76